Terminal Aerodrome Forecast
Issued by NWS Albany, NY

Home | Current Version | Previous Version | Text Only | Print | Product List | Glossary On
Versions: 1 2 3 4 5 6 7 8 9 10 11 12 13 14 15 16 17 18 19 20 21 22 23
000
FTUS41 KALY 280500
TAFALB
TAF
KALB 280532Z 2806/2906 33010KT P6SM VCSH BKN030 BKN060
     FM281700 31009KT P6SM SCT030 SCT150
     FM290000 29005KT P6SM SKC
     FM290400 00000KT P6SM FEW250=

USA.gov is the U.S. government's official web portal to all federal, state and local government web resources and services.